Time;durP1;ratioP1;P1;durP2;ratioP2;P2;SDS_P1;SDS_P2;PMS_P1;PMS_P2;Temp;Humidity;BMP_temperature;BMP_pressure;BME280_temperature;BME280_humidity;BME280_pressure;Samples;Min_cycle;Max_cycle;Signal;HPM_P1;HPM_P2
2022/07/20 00:01:30;;;;;;;5.40;2.00;;;;;;;21.48;66.64;100738.56;5209870;28;20029;-72
2022/07/20 00:04:01;;;;;;;8.25;1.80;;;;;;;21.53;66.52;100740.84;5212379;28;20431;-72
2022/07/20 00:06:31;;;;;;;6.68;1.83;;;;;;;21.38;66.12;100737.59;5211159;28;20071;-70
2022/07/20 00:11:50;;;;;;;5.32;2.20;;;;;;;21.17;67.16;100739.25;5211884;28;20462;-72
2022/07/20 00:14:21;;;;;;;6.35;1.90;;;;;;;21.20;66.55;100735.50;5209224;28;20500;-72
2022/07/20 00:16:51;;;;;;;8.00;1.88;;;;;;;21.25;65.10;100734.16;5213681;28;20029;-72
2022/07/20 00:19:22;;;;;;;6.50;1.77;;;;;;;21.36;64.71;100736.84;5209231;28;20029;-72
2022/07/20 00:21:52;;;;;;;5.22;1.90;;;;;;;21.33;65.74;100733.56;5214426;28;20035;-72
2022/07/20 00:24:23;;;;;;;4.00;1.85;;;;;;;21.35;65.97;100732.50;5209384;28;20449;-72
2022/07/20 00:26:53;;;;;;;6.90;1.85;;;;;;;21.24;65.78;100729.81;5213817;28;20029;-72
2022/07/20 00:29:23;;;;;;;5.03;1.90;;;;;;;21.24;64.90;100728.97;5209956;28;20479;-72
2022/07/20 00:31:54;;;;;;;5.78;2.10;;;;;;;21.20;64.98;100728.38;5209736;28;20025;-72
2022/07/20 00:36:56;;;;;;;6.97;2.28;;;;;;;21.30;64.94;100724.03;5178039;28;20057;-74
2022/07/20 00:39:27;;;;;;;5.88;2.20;;;;;;;21.36;64.16;100726.22;5182467;28;20029;-74
2022/07/20 00:41:57;;;;;;;5.68;2.38;;;;;;;21.41;64.12;100720.56;5180065;28;20049;-74
2022/07/20 00:44:28;;;;;;;5.05;2.17;;;;;;;21.49;62.78;100718.13;5181577;28;20430;-75
2022/07/20 00:46:58;;;;;;;4.85;1.98;;;;;;;21.52;62.19;100717.88;5179965;28;20030;-74
2022/07/20 00:49:28;;;;;;;5.28;2.15;;;;;;;21.68;61.57;100723.72;5163519;28;20419;-75
2022/07/20 00:51:59;;;;;;;8.75;2.22;;;;;;;21.51;62.89;100721.50;5179579;28;20188;-75
2022/07/20 00:54:29;;;;;;;3.90;2.08;;;;;;;21.59;62.23;100719.94;5179876;28;20274;-75
2022/07/20 00:57:07;;;;;;;5.20;1.77;;;;;;;21.60;62.32;100712.81;5179600;28;20087;-75
2022/07/20 00:59:38;;;;;;;4.70;2.38;;;;;;;21.45;62.93;100716.69;5170323;28;20296;-75
2022/07/20 01:02:08;;;;;;;3.95;2.05;;;;;;;21.18;64.30;100713.47;5179769;28;20534;-74
2022/07/20 01:04:39;;;;;;;6.07;2.28;;;;;;;21.26;64.01;100716.41;5181101;28;20075;-74
2022/07/20 01:07:10;;;;;;;6.00;2.25;;;;;;;21.28;64.51;100719.81;5163140;28;20030;-74
2022/07/20 01:09:40;;;;;;;6.35;2.10;;;;;;;21.41;63.49;100716.06;5182774;28;20538;-74
2022/07/20 01:12:11;;;;;;;9.93;2.30;;;;;;;21.44;63.44;100715.81;5180698;28;20495;-74
2022/07/20 01:14:41;;;;;;;6.45;2.30;;;;;;;21.49;62.71;100716.31;5179595;28;20587;-74
2022/07/20 01:17:12;;;;;;;4.00;2.10;;;;;;;21.46;63.45;100718.38;5179426;28;20120;-74
2022/07/20 01:19:42;;;;;;;5.97;2.33;;;;;;;21.45;64.03;100714.03;5179676;28;20156;-74
2022/07/20 01:22:12;;;;;;;7.38;2.35;;;;;;;21.47;63.08;100717.41;5179808;28;20029;-74
2022/07/20 01:24:43;;;;;;;9.82;2.40;;;;;;;21.46;62.88;100718.38;5179116;28;20495;-74
2022/07/20 01:27:13;;;;;;;7.47;2.30;;;;;;;21.58;62.23;100712.94;5180626;28;20064;-75
2022/07/20 01:29:43;;;;;;;8.35;2.33;;;;;;;21.53;63.25;100711.59;5178793;28;20030;-75
2022/07/20 01:32:14;;;;;;;7.28;2.53;;;;;;;21.39;64.41;100706.53;5179310;28;20041;-75
2022/07/20 01:34:45;;;;;;;7.10;2.00;;;;;;;21.45;64.20;100712.22;5180664;28;20068;-74
2022/07/20 01:37:15;;;;;;;6.35;2.70;;;;;;;21.20;65.86;100698.28;5178653;28;20030;-74
2022/07/20 01:39:45;;;;;;;4.57;2.17;;;;;;;21.12;65.58;100703.31;5182155;28;20036;-75
2022/07/20 01:42:16;;;;;;;3.97;2.00;;;;;;;21.10;65.83;100699.94;5178831;28;20064;-74
2022/07/20 01:44:46;;;;;;;6.75;2.53;;;;;;;21.00;66.23;100701.59;5179125;28;20065;-74
2022/07/20 01:47:16;;;;;;;3.78;2.08;;;;;;;21.03;66.71;100696.06;5179673;28;20390;-74
2022/07/20 01:49:47;;;;;;;4.63;2.15;;;;;;;21.04;66.69;100693.28;5178719;28;20038;-74
2022/07/20 01:52:17;;;;;;;5.13;2.17;;;;;;;20.98;66.65;100696.41;5178680;28;20018;-75
2022/07/20 01:54:47;;;;;;;5.22;2.10;;;;;;;21.04;66.92;100695.09;5178665;28;20052;-75
2022/07/20 01:57:18;;;;;;;8.48;2.20;;;;;;;20.92;67.65;100696.03;5178219;28;20022;-75
2022/07/20 01:59:48;;;;;;;6.55;2.20;;;;;;;20.89;67.50;100697.09;5179776;28;20483;-74
2022/07/20 02:02:19;;;;;;;5.05;2.40;;;;;;;20.93;66.68;100697.72;5180211;28;20236;-75
2022/07/20 02:04:49;;;;;;;5.10;2.20;;;;;;;20.93;65.58;100685.28;5177686;28;20025;-74
2022/07/20 02:07:19;;;;;;;7.10;2.20;;;;;;;20.98;66.80;100695.56;5177623;28;20128;-74
2022/07/20 02:09:50;;;;;;;7.22;2.53;;;;;;;20.81;67.95;100695.97;5180417;28;20018;-74
2022/07/20 02:12:20;;;;;;;9.20;2.50;;;;;;;20.81;68.14;100687.97;5179135;28;20053;-75
2022/07/20 02:14:51;;;;;;;7.20;2.75;;;;;;;20.84;66.83;100679.81;5178297;28;20025;-75
2022/07/20 02:17:21;;;;;;;4.70;2.42;;;;;;;20.73;66.62;100687.72;5179021;28;20030;-75
2022/07/20 02:19:51;;;;;;;4.20;2.30;;;;;;;20.64;67.72;100685.75;5178078;28;20029;-74
2022/07/20 02:22:22;;;;;;;5.97;2.15;;;;;;;20.79;67.33;100679.28;5178740;28;20065;-74
2022/07/20 02:24:52;;;;;;;4.35;2.30;;;;;;;20.58;68.68;100682.69;5179708;28;20041;-74
2022/07/20 02:27:22;;;;;;;4.00;2.25;;;;;;;20.58;68.07;100678.25;5179524;28;20022;-74
2022/07/20 02:29:52;;;;;;;5.40;2.42;;;;;;;20.65;67.69;100678.66;5178745;28;20021;-74
2022/07/20 02:32:23;;;;;;;6.60;2.40;;;;;;;20.53;67.94;100675.09;5179450;28;20018;-74
2022/07/20 02:34:53;;;;;;;4.40;2.10;;;;;;;20.37;68.80;100674.53;5179471;28;20545;-74
2022/07/20 02:37:23;;;;;;;6.32;2.40;;;;;;;20.25;68.39;100671.94;5178523;28;20029;-72
2022/07/20 02:39:54;;;;;;;3.67;2.08;;;;;;;20.42;68.78;100675.03;5181474;28;20399;-74
2022/07/20 02:42:24;;;;;;;4.13;2.08;;;;;;;20.09;70.72;100682.84;5183649;28;20018;-74
2022/07/20 02:44:54;;;;;;;6.10;2.35;;;;;;;20.10;70.11;100679.22;5182643;28;20105;-75
2022/07/20 02:47:25;;;;;;;10.23;2.60;;;;;;;20.11;70.04;100678.25;5183548;28;20057;-74
2022/07/20 02:49:55;;;;;;;5.32;2.45;;;;;;;20.00;69.93;100683.47;5183910;28;20536;-74
2022/07/20 02:52:25;;;;;;;5.25;2.55;;;;;;;19.92;69.98;100677.88;5179692;28;20040;-74
2022/07/20 02:54:56;;;;;;;9.43;2.80;;;;;;;19.80;70.06;100675.25;5183739;28;20030;-75
2022/07/20 02:57:26;;;;;;;6.43;2.22;;;;;;;19.63;71.58;100679.09;5183104;28;20025;-74
2022/07/20 02:59:56;;;;;;;5.03;2.35;;;;;;;19.44;73.45;100677.88;5183470;28;20026;-74
2022/07/20 03:02:27;;;;;;;6.10;2.55;;;;;;;19.57;72.32;100678.69;5182978;28;20030;-74
2022/07/20 03:04:57;;;;;;;7.65;2.40;;;;;;;19.44;73.78;100680.50;5181681;28;20560;-74
2022/07/20 03:07:27;;;;;;;7.07;2.78;;;;;;;19.39;73.39;100678.19;5183022;28;20487;-74
2022/07/20 03:09:58;;;;;;;5.30;2.30;;;;;;;19.36;73.80;100678.41;5185189;28;20029;-74
2022/07/20 03:12:28;;;;;;;4.97;2.40;;;;;;;19.48;72.93;100680.16;5183462;28;20022;-74
2022/07/20 03:14:58;;;;;;;5.30;2.22;;;;;;;19.59;73.29;100682.91;5183620;28;20109;-74
2022/07/20 03:17:29;;;;;;;7.40;2.47;;;;;;;19.62;72.79;100681.88;5182768;28;20022;-74
2022/07/20 03:20:00;;;;;;;3.50;1.95;;;;;;;19.53;73.96;100696.63;5181783;28;20607;-75
2022/07/20 03:22:30;;;;;;;11.65;2.45;;;;;;;19.53;71.73;100687.81;5183322;28;20057;-74
2022/07/20 03:25:00;;;;;;;6.45;2.72;;;;;;;19.67;72.31;100685.91;5182915;28;20087;-74
2022/07/20 03:27:31;;;;;;;7.38;2.60;;;;;;;19.48;73.21;100682.00;5182628;28;20041;-74
2022/07/20 03:30:03;;;;;;;5.78;2.45;;;;;;;19.68;70.68;100682.28;5182660;28;20018;-74
2022/07/20 03:32:34;;;;;;;6.57;2.50;;;;;;;19.61;72.16;100683.66;5182928;28;20025;-73
2022/07/20 03:35:05;;;;;;;6.72;2.60;;;;;;;19.61;73.27;100690.78;5183256;28;20364;-73
2022/07/20 03:37:35;;;;;;;7.78;2.55;;;;;;;19.82;70.63;100690.09;5182786;28;20113;-74
2022/07/20 03:40:07;;;;;;;5.60;3.00;;;;;;;19.77;70.00;100692.22;5184649;28;20105;-74
2022/07/20 03:42:37;;;;;;;7.00;2.80;;;;;;;19.68;71.30;100692.91;5181934;28;20072;-74
2022/07/20 03:45:08;;;;;;;9.85;3.35;;;;;;;19.84;70.14;100690.00;5182847;28;20561;-74
2022/07/20 03:47:38;;;;;;;6.25;2.63;;;;;;;19.81;71.46;100704.31;5181655;28;20022;-74
2022/07/20 03:50:09;;;;;;;6.68;2.90;;;;;;;19.77;71.47;100697.53;5181387;28;20030;-74
2022/07/20 03:52:39;;;;;;;7.50;3.05;;;;;;;19.83;71.75;100698.91;5181872;28;20025;-74
2022/07/20 03:55:09;;;;;;;7.03;3.10;;;;;;;19.81;72.35;100704.31;5182894;28;20406;-74
2022/07/20 03:57:40;;;;;;;13.25;3.58;;;;;;;19.81;72.08;100701.66;5182087;28;20021;-74
2022/07/20 04:00:11;;;;;;;5.78;2.85;;;;;;;19.99;71.19;100700.34;5182089;28;20038;-74
2022/07/20 04:02:41;;;;;;;11.57;2.97;;;;;;;20.04;71.37;100703.56;5182501;28;20052;-74
2022/07/20 04:05:11;;;;;;;9.85;2.90;;;;;;;20.17;70.46;100701.72;5182522;28;20120;-75
2022/07/20 04:07:42;;;;;;;8.07;3.20;;;;;;;20.36;69.99;100715.34;5181958;28;20022;-74
2022/07/20 04:10:12;;;;;;;5.35;2.90;;;;;;;20.43;70.31;100713.09;5184105;28;20017;-74
2022/07/20 04:12:43;;;;;;;7.63;3.15;;;;;;;20.56;68.74;100706.75;5181382;28;20053;-74
2022/07/20 04:15:13;;;;;;;7.38;3.13;;;;;;;20.76;68.61;100717.56;5182477;28;20025;-75
2022/07/20 04:17:43;;;;;;;6.93;3.00;;;;;;;20.77;69.21;100713.09;5181701;28;20022;-75
2022/07/20 04:20:14;;;;;;;9.10;3.20;;;;;;;20.78;67.98;100720.09;5182036;28;20033;-74
2022/07/20 04:22:44;;;;;;;6.63;2.92;;;;;;;21.04;67.53;100719.88;5182474;28;20022;-75
2022/07/20 04:25:14;;;;;;;6.00;2.95;;;;;;;21.13;67.33;100720.97;5181285;28;20476;-74
2022/07/20 04:27:45;;;;;;;6.88;2.88;;;;;;;21.09;68.33;100720.34;5179163;28;20040;-75
2022/07/20 04:30:16;;;;;;;6.10;2.92;;;;;;;21.11;68.76;100728.22;5181738;28;20029;-74
2022/07/20 04:32:46;;;;;;;8.55;2.90;;;;;;;20.96;69.88;100724.94;5181536;28;20033;-75
2022/07/20 04:35:17;;;;;;;5.28;2.80;;;;;;;21.30;69.34;100723.19;5181912;28;20570;-74
2022/07/20 04:37:47;;;;;;;13.13;3.30;;;;;;;21.13;70.74;100726.28;5181334;28;20064;-74
2022/07/20 04:40:17;;;;;;;7.80;2.85;;;;;;;21.57;69.43;100721.88;5183225;28;20056;-74
2022/07/20 04:42:47;;;;;;;7.30;2.55;;;;;;;21.87;68.98;100732.81;5181469;28;20536;-75
2022/07/20 04:45:18;;;;;;;7.85;2.90;;;;;;;22.94;64.76;100722.97;5181863;28;20152;-75
2022/07/20 04:47:48;;;;;;;7.30;2.75;;;;;;;23.84;62.02;100709.78;5180667;28;20108;-75
2022/07/20 04:50:19;;;;;;;6.45;2.85;;;;;;;25.47;58.29;100712.44;5181258;28;20022;-75
2022/07/20 04:52:49;;;;;;;5.57;3.15;;;;;;;26.24;56.12;100708.44;5181602;28;20026;-76
2022/07/20 04:55:19;;;;;;;6.72;3.13;;;;;;;26.92;56.17;100709.50;5181486;28;20026;-75
2022/07/20 04:57:50;;;;;;;8.13;3.22;;;;;;;28.50;52.61;100701.66;5181128;28;20621;-75
2022/07/20 05:00:20;;;;;;;5.07;2.80;;;;;;;28.78;52.54;100711.13;5181572;28;20026;-75
2022/07/20 05:02:50;;;;;;;7.55;2.88;;;;;;;29.02;52.18;100708.47;5179932;28;20312;-76
2022/07/20 05:05:21;;;;;;;7.20;2.53;;;;;;;29.83;50.22;100699.25;5180949;28;20467;-76
2022/07/20 05:07:51;;;;;;;5.13;2.70;;;;;;;29.40;50.23;100699.69;5180747;28;20569;-76
2022/07/20 05:10:22;;;;;;;6.10;2.90;;;;;;;30.75;48.88;100697.47;5183066;28;20045;-76
2022/07/20 05:12:52;;;;;;;11.68;3.15;;;;;;;30.32;49.43;100703.44;5181142;28;20030;-76
2022/07/20 05:15:25;;;;;;;7.37;2.27;;;;;;;30.48;48.94;100696.09;5180929;28;20112;-76
2022/07/20 05:17:55;;;;;;;8.82;3.10;;;;;;;30.85;48.25;100696.19;5175384;28;20272;-75
2022/07/20 05:20:26;;;;;;;5.43;2.63;;;;;;;30.76;48.59;100707.22;5180272;28;20026;-76
2022/07/20 05:22:56;;;;;;;7.43;2.85;;;;;;;29.95;50.36;100708.66;5180565;28;20041;-76
2022/07/20 05:25:27;;;;;;;7.18;2.72;;;;;;;31.27;48.15;100699.19;5180507;28;20407;-75
2022/07/20 05:27:57;;;;;;;9.07;2.92;;;;;;;32.52;46.61;100704.28;5179576;28;20060;-76
2022/07/20 05:30:27;;;;;;;10.70;2.43;;;;;;;32.70;45.93;100693.91;5177572;28;20025;-76
2022/07/20 05:32:58;;;;;;;9.57;2.88;;;;;;;31.66;47.51;100705.22;5177893;28;20352;-76
2022/07/20 05:35:28;;;;;;;9.88;2.65;;;;;;;31.94;47.16;100706.25;5179006;28;20018;-75
2022/07/20 05:38:00;;;;;;;6.87;2.70;;;;;;;31.19;47.83;100718.22;5178378;28;20088;-75
2022/07/20 05:40:30;;;;;;;7.85;2.80;;;;;;;31.36;48.23;100704.34;5181724;28;20061;-76
2022/07/20 05:43:00;;;;;;;6.78;2.78;;;;;;;32.03;46.82;100703.25;5179842;28;20070;-75
2022/07/20 05:45:31;;;;;;;6.93;2.60;;;;;;;32.30;46.20;100701.75;5180244;28;20029;-75
2022/07/20 05:48:01;;;;;;;6.28;2.83;;;;;;;31.68;47.07;100711.31;5179826;28;20272;-76
2022/07/20 05:50:32;;;;;;;8.95;2.70;;;;;;;31.43;47.77;100705.31;5180351;28;20044;-76
2022/07/20 05:53:02;;;;;;;8.07;2.58;;;;;;;31.78;47.29;100704.59;5180398;28;20532;-76
2022/07/20 05:55:34;;;;;;;8.50;2.87;;;;;;;30.30;49.80;100709.03;5179928;28;20025;-75
2022/07/20 05:58:06;;;;;;;5.20;2.83;;;;;;;31.09;49.03;100707.63;5179561;28;20404;-75
2022/07/20 06:00:37;;;;;;;7.05;2.60;;;;;;;30.69;50.08;100704.41;5178178;28;20617;-75
2022/07/20 06:03:07;;;;;;;9.88;2.65;;;;;;;30.83;49.50;100705.47;5178766;28;20032;-75
2022/07/20 06:05:38;;;;;;;5.55;2.70;;;;;;;30.83;49.25;100702.78;5178733;28;20494;-75
2022/07/20 06:08:08;;;;;;;10.45;3.03;;;;;;;30.02;50.21;100712.31;5178488;28;20625;-75
2022/07/20 06:10:39;;;;;;;6.65;2.50;;;;;;;29.31;51.54;100704.25;5180651;28;20487;-75
2022/07/20 06:13:09;;;;;;;5.55;2.60;;;;;;;29.12;52.25;100711.84;5178683;28;20142;-75
2022/07/20 06:15:40;;;;;;;5.80;2.53;;;;;;;28.88;52.58;100701.88;5179700;28;20097;-75
2022/07/20 06:18:10;;;;;;;7.25;2.95;;;;;;;29.06;52.25;100713.34;5179424;28;20021;-75
2022/07/20 06:20:40;;;;;;;7.32;2.80;;;;;;;29.06;52.89;100709.84;5180347;28;20050;-75
2022/07/20 06:23:11;;;;;;;8.77;2.75;;;;;;;29.34;52.23;100714.69;5180024;28;20115;-74
2022/07/20 06:25:41;;;;;;;5.13;2.50;;;;;;;29.48;51.51;100705.09;5179240;28;20386;-75
2022/07/20 06:28:12;;;;;;;5.53;2.55;;;;;;;29.63;51.14;100709.63;5179741;28;20129;-75
2022/07/20 06:30:42;;;;;;;9.38;2.67;;;;;;;29.84;51.14;100717.09;5179984;28;20040;-73
2022/07/20 06:33:12;;;;;;;8.07;2.60;;;;;;;30.06;51.32;100727.19;5180156;28;20476;-75
2022/07/20 06:35:43;;;;;;;8.20;3.05;;;;;;;29.65;51.70;100725.59;5209433;22;20057;-73
2022/07/20 06:38:13;;;;;;;7.63;2.90;;;;;;;30.25;50.52;100721.34;5195619;28;20026;-76
2022/07/20 06:40:44;;;;;;;7.18;2.75;;;;;;;30.65;48.94;100724.69;5199335;28;20032;-75
2022/07/20 06:43:14;;;;;;;7.13;2.10;;;;;;;31.31;48.58;100727.53;5198337;28;20485;-76
2022/07/20 06:45:46;;;;;;;6.80;2.25;;;;;;;31.83;47.18;100723.81;5199026;28;21025;-75
2022/07/20 06:48:17;;;;;;;4.95;2.50;;;;;;;32.42;47.22;100724.59;5198187;28;20083;-76
2022/07/20 06:50:49;;;;;;;4.82;2.30;;;;;;;31.72;47.19;100721.56;5198479;28;20486;-75
2022/07/20 06:53:19;;;;;;;10.82;2.58;;;;;;;31.94;47.56;100725.19;5198504;28;20463;-76
2022/07/20 06:55:49;;;;;;;8.50;2.50;;;;;;;32.54;46.44;100721.19;5198219;28;20037;-76
2022/07/20 06:58:20;;;;;;;6.03;2.55;;;;;;;33.26;45.18;100722.78;5197953;28;20021;-77
2022/07/20 07:00:50;;;;;;;8.18;2.38;;;;;;;33.45;45.02;100725.66;5198325;28;20021;-76
2022/07/20 07:03:20;;;;;;;8.65;2.40;;;;;;;33.65;45.49;100720.38;5198317;28;20032;-76
2022/07/20 07:05:51;;;;;;;7.78;2.28;;;;;;;33.62;45.47;100721.59;5198017;28;20024;-76
2022/07/20 07:08:21;;;;;;;5.55;2.35;;;;;;;33.57;45.08;100721.34;5198709;28;20155;-76
2022/07/20 07:10:51;;;;;;;8.45;2.60;;;;;;;33.79;44.71;100727.56;5201323;28;20501;-76
2022/07/20 07:13:22;;;;;;;7.93;2.03;;;;;;;34.02;45.71;100725.41;5198167;28;20021;-76
2022/07/20 07:15:52;;;;;;;6.30;2.30;;;;;;;33.85;44.40;100729.50;5196833;28;20021;-76
2022/07/20 07:18:22;;;;;;;5.43;2.25;;;;;;;34.39;44.03;100738.53;5193587;28;20094;-76
2022/07/20 07:20:53;;;;;;;8.98;2.15;;;;;;;35.42;43.46;100732.50;5194858;28;20032;-76
2022/07/20 07:23:23;;;;;;;4.17;2.10;;;;;;;35.01;43.00;100734.53;5195798;28;20100;-74
2022/07/20 07:25:53;;;;;;;7.68;2.40;;;;;;;35.77;42.28;100728.50;5199936;28;20419;-77
2022/07/20 07:28:24;;;;;;;8.63;2.00;;;;;;;35.23;43.01;100742.31;5201059;28;20044;-75
2022/07/20 07:30:54;;;;;;;5.20;1.95;;;;;;;35.99;43.17;100727.97;5197890;28;20124;-76
2022/07/20 07:33:25;;;;;;;10.45;2.30;;;;;;;36.06;42.04;100739.69;5201656;28;20086;-76
2022/07/20 07:35:55;;;;;;;6.57;2.15;;;;;;;36.28;41.75;100741.09;5198768;28;20025;-76
2022/07/20 07:38:26;;;;;;;6.78;2.10;;;;;;;36.61;41.89;100728.19;5196836;28;20026;-76
2022/07/20 07:40:56;;;;;;;7.75;2.05;;;;;;;36.47;42.28;100736.63;5199576;28;20047;-76
2022/07/20 07:43:27;;;;;;;6.15;2.33;;;;;;;36.42;41.96;100729.09;5199518;28;20076;-77
2022/07/20 07:45:58;;;;;;;9.98;2.15;;;;;;;37.28;41.01;100720.16;5200026;28;20033;-76
2022/07/20 07:48:28;;;;;;;8.10;2.10;;;;;;;37.89;40.45;100721.91;5200318;28;20028;-76
2022/07/20 07:50:59;;;;;;;4.35;2.00;;;;;;;37.32;41.50;100727.69;5202517;28;20306;-74
2022/07/20 07:53:29;;;;;;;6.78;1.90;;;;;;;36.39;41.41;100720.50;5199782;28;21232;-76
2022/07/20 07:56:00;;;;;;;5.50;2.00;;;;;;;37.63;40.33;100719.44;5201711;28;20025;-77
2022/07/20 07:58:30;;;;;;;3.70;1.90;;;;;;;37.83;40.34;100713.75;5200415;28;20406;-76
2022/07/20 08:01:00;;;;;;;8.82;2.30;;;;;;;38.87;39.52;100717.91;5202014;28;20080;-77
2022/07/20 08:03:31;;;;;;;5.03;1.67;;;;;;;39.08;39.18;100718.19;5192739;28;20079;-73
2022/07/20 08:06:03;;;;;;;11.13;2.15;;;;;;;38.58;39.46;100713.28;5199831;28;20060;-75
2022/07/20 08:08:34;;;;;;;7.43;2.03;;;;;;;39.15;39.51;100704.41;5199939;28;20032;-77
2022/07/20 08:11:05;;;;;;;6.28;1.85;;;;;;;40.14;38.67;100708.69;5199783;28;20078;-77
2022/07/20 08:13:35;;;;;;;8.77;2.00;;;;;;;40.03;38.30;100704.06;5198245;28;20077;-77
2022/07/20 08:16:06;;;;;;;7.22;2.30;;;;;;;39.34;39.14;100710.41;5193072;28;20026;-76
2022/07/20 08:18:36;;;;;;;4.70;1.98;;;;;;;40.02;38.91;100713.34;5201560;28;20040;-77
2022/07/20 08:21:06;;;;;;;5.65;2.05;;;;;;;40.24;37.49;100712.47;5200493;28;20033;-76
2022/07/20 08:23:37;;;;;;;6.03;1.95;;;;;;;40.76;37.48;100711.31;5200484;28;20079;-77
2022/07/20 08:26:07;;;;;;;6.30;2.00;;;;;;;41.14;36.82;100708.72;5195872;28;20037;-76
2022/07/20 08:28:39;;;;;;;7.10;2.23;;;;;;;41.14;36.80;100702.38;5201060;28;20024;-76
2022/07/20 08:31:10;;;;;;;4.47;1.90;;;;;;;41.01;36.92;100695.31;5201083;28;20367;-76
2022/07/20 08:33:40;;;;;;;5.32;1.88;;;;;;;41.31;36.16;100692.25;5200385;28;20136;-74
2022/07/20 08:36:10;;;;;;;3.90;1.88;;;;;;;40.69;37.41;100696.09;5199279;28;20033;-74
2022/07/20 08:38:41;;;;;;;7.82;2.42;;;;;;;41.14;36.98;100691.41;5198591;28;20078;-74
2022/07/20 08:41:12;;;;;;;4.47;1.80;;;;;;;40.72;36.66;100693.69;5200929;28;20029;-74
2022/07/20 08:43:43;;;;;;;4.18;1.73;;;;;;;41.45;36.54;100697.13;5199145;28;20282;-73
2022/07/20 08:46:13;;;;;;;5.78;2.08;;;;;;;42.17;36.47;100693.25;5198588;28;20471;-74
2022/07/20 08:48:46;;;;;;;7.97;2.08;;;;;;;41.68;37.30;100686.81;5199925;28;20061;-74
2022/07/20 08:51:17;;;;;;;4.53;1.90;;;;;;;40.97;36.49;100687.84;5201570;28;20025;-74
2022/07/20 08:53:49;;;;;;;5.38;2.15;;;;;;;40.66;36.55;100694.69;5183843;28;20049;-74
2022/07/20 08:56:19;;;;;;;7.40;2.22;;;;;;;40.11;36.73;100693.59;5199951;28;20046;-74
2022/07/20 08:58:50;;;;;;;9.85;2.13;;;;;;;41.17;36.90;100685.41;5199188;28;20442;-73
2022/07/20 09:01:20;;;;;;;4.78;1.80;;;;;;;41.17;36.51;100691.75;5199804;28;20490;-74
2022/07/20 09:04:09;;;;;;;4.93;1.83;;;;;;;42.02;37.77;100684.78;5201488;28;20029;-73
2022/07/20 09:06:50;;;;;;;5.50;2.15;;;;;;;42.13;36.20;100678.34;5198641;28;20026;-74
2022/07/20 09:09:21;;;;;;;3.92;1.77;;;;;;;42.12;35.80;100680.28;5201404;28;20142;-73
2022/07/20 09:11:51;;;;;;;8.85;1.77;;;;;;;40.86;36.25;100688.75;5199488;28;20452;-74
2022/07/20 09:14:47;;;;;;;6.50;1.80;;;;;;;41.52;36.07;100681.34;5199671;28;20057;-74
2022/07/20 09:17:23;;;;;;;6.15;1.73;;;;;;;41.40;36.04;100680.59;5198182;28;20022;-74
2022/07/20 09:20:08;;;;;;;3.50;1.80;;;;;;;42.11;36.10;100686.00;5200010;28;20034;-74
2022/07/20 09:22:38;;;;;;;7.28;1.65;;;;;;;41.03;36.85;100681.34;5197196;28;20033;-74
2022/07/20 09:25:12;;;;;;;5.60;1.70;;;;;;;41.42;36.01;100683.91;5198995;28;20029;-73
2022/07/20 09:27:43;;;;;;;;;;;;;;;41.88;35.70;100689.00;5199384;28;20207;-73
2022/07/20 09:30:16;;;;;;;3.80;1.70;;;;;;;41.65;35.73;100683.72;5196394;28;20291;-73
2022/07/20 09:32:55;;;;;;;6.60;2.00;;;;;;;41.86;35.73;100680.19;5197336;28;20391;-76
2022/07/20 09:35:32;;;;;;;3.50;2.00;;;;;;;41.77;36.63;100673.47;5196145;28;20246;-75
2022/07/20 09:38:04;;;;;;;6.78;1.95;;;;;;;42.47;36.32;100671.59;5196659;28;20112;-76
2022/07/20 09:40:46;;;;;;;4.05;2.03;;;;;;;43.32;33.92;100673.22;5202427;28;20448;-76
2022/07/20 09:43:45;;;;;;;8.32;2.03;;;;;;;42.89;34.99;100672.59;5200482;28;20501;-76
2022/07/20 09:46:20;;;;;;;5.78;2.00;;;;;;;42.56;35.44;100670.06;5201439;28;20045;-74
2022/07/20 09:48:54;;;;;;;5.82;2.20;;;;;;;42.71;33.95;100672.94;5199255;28;20530;-75
2022/07/20 09:51:29;;;;;;;6.22;1.60;;;;;;;43.92;34.52;100666.16;5198908;28;20033;-76
2022/07/20 09:54:08;;;;;;;5.53;1.90;;;;;;;43.56;34.38;100662.63;5191369;28;20037;-76
2022/07/20 09:56:41;;;;;;;7.22;1.90;;;;;;;44.22;33.62;100655.25;5196742;28;20037;-76
2022/07/20 09:59:12;;;;;;;4.47;1.90;;;;;;;44.71;33.42;100648.19;5199844;28;20041;-76
2022/07/20 10:01:45;;;;;;;2.70;1.70;;;;;;;44.10;33.01;100646.38;5198369;28;20438;-76
2022/07/20 10:04:17;;;;;;;4.30;1.73;;;;;;;42.41;33.99;100656.97;5200033;28;20037;-75
2022/07/20 10:06:50;;;;;;;7.45;2.22;;;;;;;41.69;34.49;100647.25;5199889;28;20429;-76
2022/07/20 10:09:21;;;;;;;4.23;1.80;;;;;;;42.20;32.70;100648.75;5200574;28;20425;-75
2022/07/20 10:11:51;;;;;;;3.72;1.67;;;;;;;41.34;35.92;100654.16;5198385;28;20315;-76
2022/07/20 10:14:23;;;;;;;3.53;1.88;;;;;;;40.64;35.36;100642.00;5198777;28;20104;-76
2022/07/20 10:16:54;;;;;;;4.05;1.77;;;;;;;39.87;36.47;100626.19;5199769;28;20367;-75
2022/07/20 10:19:48;;;;;;;7.50;2.10;;;;;;;39.30;37.79;100641.88;5198179;28;20052;-75
2022/07/20 10:22:19;;;;;;;5.85;2.15;;;;;;;39.08;38.52;100638.84;5196114;28;20120;-76
2022/07/20 10:25:17;;;;;;;9.40;2.45;;;;;;;38.81;37.15;100628.59;5198858;28;20117;-75
2022/07/20 10:27:48;;;;;;;6.63;2.05;;;;;;;38.53;37.34;100631.97;5196211;28;20075;-76
2022/07/20 10:30:19;;;;;;;5.63;1.95;;;;;;;39.17;36.21;100628.38;5200101;28;20017;-76
2022/07/20 10:33:08;;;;;;;10.20;2.10;;;;;;;38.90;36.33;100638.13;5198261;28;20199;-76
2022/07/20 10:35:39;;;;;;;9.32;2.00;;;;;;;38.99;37.96;100639.44;5196202;28;20053;-75
2022/07/20 10:38:10;;;;;;;6.13;2.10;;;;;;;39.18;35.94;100628.16;5197939;28;20076;-73
2022/07/20 10:44:21;;;;;;;9.00;2.50;;;;;;;38.58;37.87;100623.88;5200197;28;20040;-75
2022/07/20 10:46:51;;;;;;;8.90;2.10;;;;;;;39.05;36.80;100611.97;5196538;28;20013;-76
2022/07/20 10:50:03;;;;;;;4.35;1.77;;;;;;;38.83;36.78;100615.53;5198305;28;20048;-76
2022/07/20 10:52:35;;;;;;;7.05;2.40;;;;;;;38.55;36.73;100618.91;5199203;28;20475;-74
2022/07/20 10:55:05;;;;;;;5.60;1.98;;;;;;;38.59;36.10;100616.53;5198265;28;20792;-75
2022/07/20 10:57:36;;;;;;;7.15;2.22;;;;;;;38.18;35.86;100625.53;5198937;28;20021;-76
2022/07/20 11:00:12;;;;;;;8.52;2.10;;;;;;;38.28;37.04;100619.50;5197933;28;20021;-76
2022/07/20 11:02:42;;;;;;;;;;;;;;;38.17;36.22;100625.75;5200098;28;20021;-76
2022/07/20 11:05:20;;;;;;;9.17;2.67;;;;;;;37.99;36.18;100621.19;5202850;28;20409;-76
2022/07/20 11:07:50;;;;;;;9.48;2.60;;;;;;;38.15;36.92;100620.53;5201417;28;20021;-77
2022/07/20 11:10:26;;;;;;;7.45;2.88;;;;;;;38.22;36.86;100604.03;5199086;28;20091;-76
2022/07/20 11:13:03;;;;;;;8.68;3.00;;;;;;;38.21;36.95;100614.13;5198760;28;20059;-77
2022/07/20 11:15:59;;;;;;;5.32;2.70;;;;;;;37.97;37.93;100611.53;5198965;28;20049;-76
2022/07/20 11:18:32;;;;;;;9.65;2.72;;;;;;;38.08;37.20;100613.50;5201642;28;20116;-76
2022/07/20 11:21:11;;;;;;;6.47;2.50;;;;;;;38.06;37.28;100610.16;5199131;28;20033;-76
2022/07/20 11:23:50;;;;;;;7.65;2.72;;;;;;;38.04;37.85;100598.59;5198478;28;20492;-76
2022/07/20 11:26:21;;;;;;;8.02;2.63;;;;;;;38.01;37.59;100607.25;5198628;28;20548;-76
2022/07/20 11:28:54;;;;;;;6.43;2.42;;;;;;;37.84;37.09;100604.31;5198914;28;20155;-76
2022/07/20 11:31:30;;;;;;;5.47;2.60;;;;;;;37.77;37.78;100605.47;5201216;28;20033;-76
2022/07/20 11:34:00;;;;;;;8.15;2.20;;;;;;;37.90;38.11;100599.88;5197809;28;20029;-76
2022/07/20 11:36:35;;;;;;;9.68;2.80;;;;;;;37.89;37.42;100596.28;5201319;28;20139;-73
2022/07/20 11:39:08;;;;;;;8.70;2.88;;;;;;;37.60;37.70;100586.13;5201723;28;20036;-75
2022/07/20 11:41:41;;;;;;;9.20;2.53;;;;;;;37.77;37.76;100578.97;5201170;28;20164;-76
2022/07/20 11:44:18;;;;;;;7.47;2.65;;;;;;;37.73;37.81;100585.16;5203053;28;20538;-75
2022/07/20 11:46:49;;;;;;;10.75;2.53;;;;;;;37.68;37.49;100580.38;5201053;28;20029;-76
2022/07/20 11:49:20;;;;;;;8.85;2.60;;;;;;;37.63;37.36;100577.50;5201296;28;20556;-76
2022/07/20 11:51:57;;;;;;;6.55;2.50;;;;;;;37.54;37.27;100569.88;5201356;28;20022;-75
2022/07/20 11:54:32;;;;;;;6.60;2.42;;;;;;;37.66;36.93;100587.13;5197762;28;20116;-76